sensor_id;sensor_type;location;lat;lon;timestamp;temperature;humidity
12870;DHT22;6503;48.572;13.460;2023-02-28T00:00:01;-0.20;99.90
12870;DHT22;6503;48.572;13.460;2023-02-28T00:02:33;-0.20;99.90
12870;DHT22;6503;48.572;13.460;2023-02-28T00:05:00;-0.20;99.90
12870;DHT22;6503;48.572;13.460;2023-02-28T00:07:30;-0.30;99.90
12870;DHT22;6503;48.572;13.460;2023-02-28T00:09:58;-0.20;99.90
12870;DHT22;6503;48.572;13.460;2023-02-28T00:12:26;-0.20;99.90
12870;DHT22;6503;48.572;13.460;2023-02-28T00:14:53;-0.20;99.90
12870;DHT22;6503;48.572;13.460;2023-02-28T00:17:20;-0.30;99.90
12870;DHT22;6503;48.572;13.460;2023-02-28T00:19:47;-0.30;99.90
12870;DHT22;6503;48.572;13.460;2023-02-28T00:22:17;-0.30;99.90
12870;DHT22;6503;48.572;13.460;2023-02-28T00:24:46;-0.20;99.90
12870;DHT22;6503;48.572;13.460;2023-02-28T00:27:15;-0.10;99.90
12870;DHT22;6503;48.572;13.460;2023-02-28T00:29:46;-0.10;99.90
12870;DHT22;6503;48.572;13.460;2023-02-28T00:32:16;-0.10;99.90
12870;DHT22;6503;48.572;13.460;2023-02-28T00:34:46;-0.10;99.90
12870;DHT22;6503;48.572;13.460;2023-02-28T00:37:14;-0.10;99.90
12870;DHT22;6503;48.572;13.460;2023-02-28T00:39:40;0.00;99.90
12870;DHT22;6503;48.572;13.460;2023-02-28T00:42:09;0.00;99.90
12870;DHT22;6503;48.572;13.460;2023-02-28T00:44:36;-0.10;99.90
12870;DHT22;6503;48.572;13.460;2023-02-28T00:47:04;-0.10;99.90
12870;DHT22;6503;48.572;13.460;2023-02-28T00:49:31;-0.10;99.90
12870;DHT22;6503;48.572;13.460;2023-02-28T00:51:58;-0.10;99.90
12870;DHT22;6503;48.572;13.460;2023-02-28T00:54:26;-0.10;99.90
12870;DHT22;6503;48.572;13.460;2023-02-28T00:56:53;-0.10;99.90
12870;DHT22;6503;48.572;13.460;2023-02-28T00:59:21;-0.20;99.90
12870;DHT22;6503;48.572;13.460;2023-02-28T01:01:48;-0.20;99.90
12870;DHT22;6503;48.572;13.460;2023-02-28T01:04:15;-0.20;99.90
12870;DHT22;6503;48.572;13.460;2023-02-28T01:06:43;-0.20;99.90
12870;DHT22;6503;48.572;13.460;2023-02-28T01:09:11;-0.20;99.90
12870;DHT22;6503;48.572;13.460;2023-02-28T01:11:38;-0.20;99.90
12870;DHT22;6503;48.572;13.460;2023-02-28T01:14:08;-0.10;99.90
12870;DHT22;6503;48.572;13.460;2023-02-28T01:16:36;-0.20;99.90
12870;DHT22;6503;48.572;13.460;2023-02-28T01:19:05;-0.20;99.90
12870;DHT22;6503;48.572;13.460;2023-02-28T01:21:32;-0.30;99.90
12870;DHT22;6503;48.572;13.460;2023-02-28T01:24:00;-0.20;99.90
12870;DHT22;6503;48.572;13.460;2023-02-28T01:26:29;-0.20;99.90
12870;DHT22;6503;48.572;13.460;2023-02-28T01:28:56;-0.20;99.90
12870;DHT22;6503;48.572;13.460;2023-02-28T01:31:23;-0.20;99.90
12870;DHT22;6503;48.572;13.460;2023-02-28T01:33:52;-0.20;99.90
12870;DHT22;6503;48.572;13.460;2023-02-28T01:36:22;-0.20;99.90
12870;DHT22;6503;48.572;13.460;2023-02-28T01:38:51;-0.20;99.90
12870;DHT22;6503;48.572;13.460;2023-02-28T01:41:20;-0.20;99.90
12870;DHT22;6503;48.572;13.460;2023-02-28T01:44:03;-0.20;99.90
12870;DHT22;6503;48.572;13.460;2023-02-28T01:46:33;-0.20;99.90
12870;DHT22;6503;48.572;13.460;2023-02-28T01:49:07;-0.30;99.90
12870;DHT22;6503;48.572;13.460;2023-02-28T01:51:39;-0.30;99.90
12870;DHT22;6503;48.572;13.460;2023-02-28T01:54:14;-0.30;99.90
12870;DHT22;6503;48.572;13.460;2023-02-28T01:56:45;-0.30;99.90
12870;DHT22;6503;48.572;13.460;2023-02-28T01:59:19;-0.20;99.90
12870;DHT22;6503;48.572;13.460;2023-02-28T02:01:48;-0.30;99.90
12870;DHT22;6503;48.572;13.460;2023-02-28T02:04:18;-0.30;99.90
12870;DHT22;6503;48.572;13.460;2023-02-28T02:06:47;-0.30;99.90
12870;DHT22;6503;48.572;13.460;2023-02-28T02:09:14;-0.30;99.90
12870;DHT22;6503;48.572;13.460;2023-02-28T02:11:43;-0.30;99.90
12870;DHT22;6503;48.572;13.460;2023-02-28T02:17:19;-0.30;99.90
12870;DHT22;6503;48.572;13.460;2023-02-28T02:23:18;-0.30;99.90
12870;DHT22;6503;48.572;13.460;2023-02-28T02:25:53;-0.40;99.90
12870;DHT22;6503;48.572;13.460;2023-02-28T02:28:56;-0.50;99.90
12870;DHT22;6503;48.572;13.460;2023-02-28T02:32:07;-0.40;99.90
12870;DHT22;6503;48.572;13.460;2023-02-28T02:34:43;-0.40;99.90
12870;DHT22;6503;48.572;13.460;2023-02-28T02:37:27;-0.40;99.90
12870;DHT22;6503;48.572;13.460;2023-02-28T02:40:02;-0.40;99.90
12870;DHT22;6503;48.572;13.460;2023-02-28T02:42:36;-0.40;99.90
12870;DHT22;6503;48.572;13.460;2023-02-28T02:45:10;-0.40;99.90
12870;DHT22;6503;48.572;13.460;2023-02-28T02:47:40;-0.40;99.90
12870;DHT22;6503;48.572;13.460;2023-02-28T02:50:13;-0.40;99.90
12870;DHT22;6503;48.572;13.460;2023-02-28T02:52:45;-0.40;99.90
12870;DHT22;6503;48.572;13.460;2023-02-28T02:55:16;-0.40;99.90
12870;DHT22;6503;48.572;13.460;2023-02-28T02:57:46;-0.50;99.90
12870;DHT22;6503;48.572;13.460;2023-02-28T03:00:17;-0.50;99.90
12870;DHT22;6503;48.572;13.460;2023-02-28T03:02:47;-0.50;99.90
12870;DHT22;6503;48.572;13.460;2023-02-28T03:05:20;-0.50;99.90
12870;DHT22;6503;48.572;13.460;2023-02-28T03:07:49;-0.40;99.90
12870;DHT22;6503;48.572;13.460;2023-02-28T03:10:34;-0.40;99.90
12870;DHT22;6503;48.572;13.460;2023-02-28T03:13:31;-0.40;99.90
12870;DHT22;6503;48.572;13.460;2023-02-28T03:16:17;-0.50;99.90
12870;DHT22;6503;48.572;13.460;2023-02-28T03:18:54;-0.40;99.90
12870;DHT22;6503;48.572;13.460;2023-02-28T03:21:32;-0.50;99.90
12870;DHT22;6503;48.572;13.460;2023-02-28T03:24:05;-0.50;99.90
12870;DHT22;6503;48.572;13.460;2023-02-28T03:26:36;-0.50;99.90
12870;DHT22;6503;48.572;13.460;2023-02-28T03:29:10;-0.50;99.90
12870;DHT22;6503;48.572;13.460;2023-02-28T03:31:46;-0.50;99.90
12870;DHT22;6503;48.572;13.460;2023-02-28T03:34:19;-0.50;99.90
12870;DHT22;6503;48.572;13.460;2023-02-28T03:36:53;-0.50;99.90
12870;DHT22;6503;48.572;13.460;2023-02-28T03:39:24;-0.60;99.90
12870;DHT22;6503;48.572;13.460;2023-02-28T03:41:58;-0.50;99.90
12870;DHT22;6503;48.572;13.460;2023-02-28T03:44:32;-0.50;99.90
12870;DHT22;6503;48.572;13.460;2023-02-28T03:47:04;-0.40;99.90
12870;DHT22;6503;48.572;13.460;2023-02-28T03:49:38;-0.40;99.90
12870;DHT22;6503;48.572;13.460;2023-02-28T03:52:10;-0.40;99.90
12870;DHT22;6503;48.572;13.460;2023-02-28T03:54:42;-0.40;99.90
12870;DHT22;6503;48.572;13.460;2023-02-28T03:57:15;-0.50;99.90
12870;DHT22;6503;48.572;13.460;2023-02-28T03:59:49;-0.40;99.90
12870;DHT22;6503;48.572;13.460;2023-02-28T04:02:17;-0.40;99.90
12870;DHT22;6503;48.572;13.460;2023-02-28T04:04:44;-0.50;99.90
12870;DHT22;6503;48.572;13.460;2023-02-28T04:07:16;-0.50;99.90
12870;DHT22;6503;48.572;13.460;2023-02-28T04:09:43;-0.50;99.90
12870;DHT22;6503;48.572;13.460;2023-02-28T04:12:10;-0.50;99.90
12870;DHT22;6503;48.572;13.460;2023-02-28T04:14:39;-0.50;99.90
12870;DHT22;6503;48.572;13.460;2023-02-28T04:17:06;-0.50;99.90
12870;DHT22;6503;48.572;13.460;2023-02-28T04:19:33;-0.60;99.90
12870;DHT22;6503;48.572;13.460;2023-02-28T04:21:59;-0.60;99.90
12870;DHT22;6503;48.572;13.460;2023-02-28T04:24:28;-0.60;99.90
12870;DHT22;6503;48.572;13.460;2023-02-28T04:26:58;-0.60;99.90
12870;DHT22;6503;48.572;13.460;2023-02-28T04:29:31;-0.60;99.90
12870;DHT22;6503;48.572;13.460;2023-02-28T04:31:59;-0.60;99.90
12870;DHT22;6503;48.572;13.460;2023-02-28T04:34:28;-0.70;99.90
12870;DHT22;6503;48.572;13.460;2023-02-28T04:36:55;-0.70;99.90
12870;DHT22;6503;48.572;13.460;2023-02-28T04:39:23;-0.70;99.90
12870;DHT22;6503;48.572;13.460;2023-02-28T04:41:53;-0.70;99.90
12870;DHT22;6503;48.572;13.460;2023-02-28T04:44:21;-0.70;99.90
12870;DHT22;6503;48.572;13.460;2023-02-28T04:46:49;-0.70;99.90
12870;DHT22;6503;48.572;13.460;2023-02-28T04:49:16;-0.70;99.90
12870;DHT22;6503;48.572;13.460;2023-02-28T04:51:44;-0.70;99.90
12870;DHT22;6503;48.572;13.460;2023-02-28T04:54:12;-0.70;99.90
12870;DHT22;6503;48.572;13.460;2023-02-28T04:56:39;-0.70;99.90
12870;DHT22;6503;48.572;13.460;2023-02-28T04:59:07;-0.70;99.90
12870;DHT22;6503;48.572;13.460;2023-02-28T05:01:34;-0.70;99.90
12870;DHT22;6503;48.572;13.460;2023-02-28T05:04:03;-0.60;99.90
12870;DHT22;6503;48.572;13.460;2023-02-28T05:06:32;-0.60;99.90
12870;DHT22;6503;48.572;13.460;2023-02-28T05:09:00;-0.60;99.90
12870;DHT22;6503;48.572;13.460;2023-02-28T05:11:29;-0.70;99.90
12870;DHT22;6503;48.572;13.460;2023-02-28T05:14:01;-0.70;99.90
12870;DHT22;6503;48.572;13.460;2023-02-28T05:16:33;-0.70;99.90
12870;DHT22;6503;48.572;13.460;2023-02-28T05:19:00;-0.70;99.90
12870;DHT22;6503;48.572;13.460;2023-02-28T05:21:30;-0.70;99.90
12870;DHT22;6503;48.572;13.460;2023-02-28T05:24:04;-0.70;99.90
12870;DHT22;6503;48.572;13.460;2023-02-28T05:26:34;-0.70;99.90
12870;DHT22;6503;48.572;13.460;2023-02-28T05:29:02;-0.70;99.90
12870;DHT22;6503;48.572;13.460;2023-02-28T05:31:30;-0.80;99.90
12870;DHT22;6503;48.572;13.460;2023-02-28T05:33:59;-0.80;99.90
12870;DHT22;6503;48.572;13.460;2023-02-28T05:36:26;-0.70;99.90
12870;DHT22;6503;48.572;13.460;2023-02-28T05:38:53;-0.90;99.90
12870;DHT22;6503;48.572;13.460;2023-02-28T05:41:21;-0.80;99.90
12870;DHT22;6503;48.572;13.460;2023-02-28T05:43:48;-0.70;99.90
12870;DHT22;6503;48.572;13.460;2023-02-28T05:46:16;-0.70;99.90
12870;DHT22;6503;48.572;13.460;2023-02-28T05:48:46;-0.70;99.90
12870;DHT22;6503;48.572;13.460;2023-02-28T05:51:14;-0.70;99.90
12870;DHT22;6503;48.572;13.460;2023-02-28T05:53:41;-0.80;99.90
12870;DHT22;6503;48.572;13.460;2023-02-28T05:56:08;-0.80;99.90
12870;DHT22;6503;48.572;13.460;2023-02-28T05:58:35;-0.70;99.90
12870;DHT22;6503;48.572;13.460;2023-02-28T06:01:25;-0.80;99.90
12870;DHT22;6503;48.572;13.460;2023-02-28T06:03:59;-0.70;99.90
12870;DHT22;6503;48.572;13.460;2023-02-28T06:06:26;-0.80;99.90
12870;DHT22;6503;48.572;13.460;2023-02-28T06:08:55;-0.80;99.90
12870;DHT22;6503;48.572;13.460;2023-02-28T06:11:22;-0.80;99.90
12870;DHT22;6503;48.572;13.460;2023-02-28T06:13:53;-0.70;99.90
12870;DHT22;6503;48.572;13.460;2023-02-28T06:16:21;-0.70;99.90
12870;DHT22;6503;48.572;13.460;2023-02-28T06:18:50;-0.70;99.90
12870;DHT22;6503;48.572;13.460;2023-02-28T06:21:19;-0.70;99.90
12870;DHT22;6503;48.572;13.460;2023-02-28T06:23:47;-0.70;99.90
12870;DHT22;6503;48.572;13.460;2023-02-28T06:26:16;-0.60;99.90
12870;DHT22;6503;48.572;13.460;2023-02-28T06:28:44;-0.60;99.90
12870;DHT22;6503;48.572;13.460;2023-02-28T06:31:13;-0.60;99.90
12870;DHT22;6503;48.572;13.460;2023-02-28T06:33:42;-0.60;99.90
12870;DHT22;6503;48.572;13.460;2023-02-28T06:36:12;-0.60;99.90
12870;DHT22;6503;48.572;13.460;2023-02-28T06:38:42;-0.50;99.90
12870;DHT22;6503;48.572;13.460;2023-02-28T06:41:11;-0.50;99.90
12870;DHT22;6503;48.572;13.460;2023-02-28T06:43:41;-0.50;99.90
12870;DHT22;6503;48.572;13.460;2023-02-28T06:46:12;-0.40;99.90
12870;DHT22;6503;48.572;13.460;2023-02-28T06:48:42;-0.50;99.90
12870;DHT22;6503;48.572;13.460;2023-02-28T06:51:11;-0.40;99.90
12870;DHT22;6503;48.572;13.460;2023-02-28T06:53:44;-0.20;99.90
12870;DHT22;6503;48.572;13.460;2023-02-28T06:56:15;-0.10;99.90
12870;DHT22;6503;48.572;13.460;2023-02-28T06:58:46;-0.10;99.90
12870;DHT22;6503;48.572;13.460;2023-02-28T07:01:13;-0.10;99.90
12870;DHT22;6503;48.572;13.460;2023-02-28T07:03:45;-0.10;99.90
12870;DHT22;6503;48.572;13.460;2023-02-28T07:06:18;-0.10;99.90
12870;DHT22;6503;48.572;13.460;2023-02-28T07:08:53;0.00;99.90
12870;DHT22;6503;48.572;13.460;2023-02-28T07:11:24;0.00;99.90
12870;DHT22;6503;48.572;13.460;2023-02-28T07:13:53;0.10;99.90
12870;DHT22;6503;48.572;13.460;2023-02-28T07:16:23;0.20;99.90
12870;DHT22;6503;48.572;13.460;2023-02-28T07:18:52;0.20;99.90
12870;DHT22;6503;48.572;13.460;2023-02-28T07:21:23;0.30;99.90
12870;DHT22;6503;48.572;13.460;2023-02-28T07:23:55;0.40;99.90
12870;DHT22;6503;48.572;13.460;2023-02-28T07:26:31;0.30;99.90
12870;DHT22;6503;48.572;13.460;2023-02-28T07:29:47;0.40;99.90
12870;DHT22;6503;48.572;13.460;2023-02-28T07:32:22;0.50;99.90
12870;DHT22;6503;48.572;13.460;2023-02-28T07:34:54;0.40;99.90
12870;DHT22;6503;48.572;13.460;2023-02-28T07:37:23;0.30;99.90
12870;DHT22;6503;48.572;13.460;2023-02-28T07:39:52;0.50;99.90
12870;DHT22;6503;48.572;13.460;2023-02-28T07:42:19;0.60;99.90
12870;DHT22;6503;48.572;13.460;2023-02-28T07:44:46;0.70;99.90
12870;DHT22;6503;48.572;13.460;2023-02-28T07:47:14;0.70;99.90
12870;DHT22;6503;48.572;13.460;2023-02-28T07:49:41;0.80;99.90
12870;DHT22;6503;48.572;13.460;2023-02-28T07:52:09;0.90;99.90
12870;DHT22;6503;48.572;13.460;2023-02-28T07:54:36;1.00;99.90
12870;DHT22;6503;48.572;13.460;2023-02-28T07:57:06;1.10;99.90
12870;DHT22;6503;48.572;13.460;2023-02-28T07:59:33;1.20;99.90
12870;DHT22;6503;48.572;13.460;2023-02-28T08:02:00;1.30;99.90
12870;DHT22;6503;48.572;13.460;2023-02-28T08:04:28;1.30;99.90
12870;DHT22;6503;48.572;13.460;2023-02-28T08:06:58;1.40;99.90
12870;DHT22;6503;48.572;13.460;2023-02-28T08:09:25;1.50;99.90
12870;DHT22;6503;48.572;13.460;2023-02-28T08:11:59;1.50;99.90
12870;DHT22;6503;48.572;13.460;2023-02-28T08:14:28;1.50;99.90
12870;DHT22;6503;48.572;13.460;2023-02-28T08:16:55;1.50;99.90
12870;DHT22;6503;48.572;13.460;2023-02-28T08:19:22;1.60;99.90
12870;DHT22;6503;48.572;13.460;2023-02-28T08:21:52;1.70;99.90
12870;DHT22;6503;48.572;13.460;2023-02-28T08:24:28;1.80;99.90
12870;DHT22;6503;48.572;13.460;2023-02-28T08:26:55;1.80;99.90
12870;DHT22;6503;48.572;13.460;2023-02-28T08:29:22;1.90;99.90
12870;DHT22;6503;48.572;13.460;2023-02-28T08:31:52;1.90;99.90
12870;DHT22;6503;48.572;13.460;2023-02-28T08:34:21;2.00;99.90
12870;DHT22;6503;48.572;13.460;2023-02-28T08:36:48;2.10;99.90
12870;DHT22;6503;48.572;13.460;2023-02-28T08:39:19;2.10;99.90
12870;DHT22;6503;48.572;13.460;2023-02-28T08:41:47;2.10;99.90
12870;DHT22;6503;48.572;13.460;2023-02-28T08:44:16;2.20;99.90
12870;DHT22;6503;48.572;13.460;2023-02-28T08:46:44;2.20;99.90
12870;DHT22;6503;48.572;13.460;2023-02-28T08:49:14;2.40;99.90
12870;DHT22;6503;48.572;13.460;2023-02-28T08:51:42;2.40;99.90
12870;DHT22;6503;48.572;13.460;2023-02-28T08:54:14;2.40;99.90
12870;DHT22;6503;48.572;13.460;2023-02-28T08:56:45;2.50;99.90
12870;DHT22;6503;48.572;13.460;2023-02-28T08:59:13;2.60;99.90
12870;DHT22;6503;48.572;13.460;2023-02-28T09:01:43;2.70;99.90
12870;DHT22;6503;48.572;13.460;2023-02-28T09:04:12;2.70;99.90
12870;DHT22;6503;48.572;13.460;2023-02-28T09:10:28;2.80;99.50
12870;DHT22;6503;48.572;13.460;2023-02-28T09:12:56;2.80;99.30
12870;DHT22;6503;48.572;13.460;2023-02-28T09:15:23;2.80;98.50
12870;DHT22;6503;48.572;13.460;2023-02-28T09:17:52;2.80;99.20
12870;DHT22;6503;48.572;13.460;2023-02-28T09:20:21;2.80;99.90
12870;DHT22;6503;48.572;13.460;2023-02-28T09:22:50;2.90;98.40
12870;DHT22;6503;48.572;13.460;2023-02-28T09:25:20;3.00;99.40
12870;DHT22;6503;48.572;13.460;2023-02-28T09:28:00;3.20;98.10
12870;DHT22;6503;48.572;13.460;2023-02-28T09:30:27;3.20;97.30
12870;DHT22;6503;48.572;13.460;2023-02-28T09:32:59;3.30;98.30
12870;DHT22;6503;48.572;13.460;2023-02-28T09:35:28;3.30;97.00
12870;DHT22;6503;48.572;13.460;2023-02-28T09:37:57;3.30;96.40
12870;DHT22;6503;48.572;13.460;2023-02-28T09:40:30;3.40;96.90
12870;DHT22;6503;48.572;13.460;2023-02-28T09:43:04;3.40;96.70
12870;DHT22;6503;48.572;13.460;2023-02-28T09:45:37;3.50;95.20
12870;DHT22;6503;48.572;13.460;2023-02-28T09:48:11;3.60;96.70
12870;DHT22;6503;48.572;13.460;2023-02-28T09:50:43;3.60;94.00
12870;DHT22;6503;48.572;13.460;2023-02-28T09:53:22;3.50;92.90
12870;DHT22;6503;48.572;13.460;2023-02-28T09:56:07;3.50;97.00
12870;DHT22;6503;48.572;13.460;2023-02-28T09:58:56;3.60;98.10
12870;DHT22;6503;48.572;13.460;2023-02-28T10:04:43;3.90;93.20
12870;DHT22;6503;48.572;13.460;2023-02-28T10:10:55;4.00;91.90
12870;DHT22;6503;48.572;13.460;2023-02-28T10:13:59;4.10;91.90
12870;DHT22;6503;48.572;13.460;2023-02-28T10:16:35;4.30;92.30
12870;DHT22;6503;48.572;13.460;2023-02-28T10:19:09;4.40;92.70
12870;DHT22;6503;48.572;13.460;2023-02-28T10:21:41;4.40;90.30
12870;DHT22;6503;48.572;13.460;2023-02-28T10:24:20;4.40;89.40
12870;DHT22;6503;48.572;13.460;2023-02-28T10:26:52;4.50;87.60
12870;DHT22;6503;48.572;13.460;2023-02-28T10:29:26;4.60;86.40
12870;DHT22;6503;48.572;13.460;2023-02-28T10:31:56;4.70;84.80
12870;DHT22;6503;48.572;13.460;2023-02-28T10:38:12;4.70;84.40
12870;DHT22;6503;48.572;13.460;2023-02-28T10:41:04;4.80;81.70
12870;DHT22;6503;48.572;13.460;2023-02-28T10:43:34;4.80;84.60
12870;DHT22;6503;48.572;13.460;2023-02-28T10:46:15;5.00;84.10
12870;DHT22;6503;48.572;13.460;2023-02-28T10:49:03;5.00;83.90
12870;DHT22;6503;48.572;13.460;2023-02-28T10:51:39;5.00;85.30
12870;DHT22;6503;48.572;13.460;2023-02-28T10:54:15;5.10;84.20
12870;DHT22;6503;48.572;13.460;2023-02-28T10:56:44;5.20;81.90
12870;DHT22;6503;48.572;13.460;2023-02-28T10:59:32;5.20;81.10
12870;DHT22;6503;48.572;13.460;2023-02-28T11:02:00;5.10;80.70
12870;DHT22;6503;48.572;13.460;2023-02-28T11:04:36;5.20;85.80
12870;DHT22;6503;48.572;13.460;2023-02-28T11:07:18;5.30;81.60
12870;DHT22;6503;48.572;13.460;2023-02-28T11:09:52;5.40;77.80
12870;DHT22;6503;48.572;13.460;2023-02-28T11:12:26;5.40;76.80
12870;DHT22;6503;48.572;13.460;2023-02-28T11:14:57;5.40;72.80
12870;DHT22;6503;48.572;13.460;2023-02-28T11:17:29;5.40;76.80
12870;DHT22;6503;48.572;13.460;2023-02-28T11:20:04;5.50;80.00
12870;DHT22;6503;48.572;13.460;2023-02-28T11:22:43;5.60;80.50
12870;DHT22;6503;48.572;13.460;2023-02-28T11:25:20;5.50;75.80
12870;DHT22;6503;48.572;13.460;2023-02-28T11:27:53;5.60;79.80
12870;DHT22;6503;48.572;13.460;2023-02-28T11:30:26;5.70;80.60
12870;DHT22;6503;48.572;13.460;2023-02-28T11:35:41;5.70;74.50
12870;DHT22;6503;48.572;13.460;2023-02-28T11:38:13;5.60;78.90
12870;DHT22;6503;48.572;13.460;2023-02-28T11:40:47;5.80;81.10
12870;DHT22;6503;48.572;13.460;2023-02-28T11:43:30;5.80;77.10
12870;DHT22;6503;48.572;13.460;2023-02-28T11:46:17;5.80;70.70
12870;DHT22;6503;48.572;13.460;2023-02-28T11:48:59;5.90;74.20
12870;DHT22;6503;48.572;13.460;2023-02-28T11:51:47;5.80;72.00
12870;DHT22;6503;48.572;13.460;2023-02-28T11:54:44;5.80;73.00
12870;DHT22;6503;48.572;13.460;2023-02-28T11:57:35;6.00;70.40
12870;DHT22;6503;48.572;13.460;2023-02-28T12:00:25;6.10;70.60
12870;DHT22;6503;48.572;13.460;2023-02-28T12:03:03;6.20;68.30
12870;DHT22;6503;48.572;13.460;2023-02-28T12:05:40;6.30;67.20
12870;DHT22;6503;48.572;13.460;2023-02-28T12:08:25;6.30;65.60
12870;DHT22;6503;48.572;13.460;2023-02-28T12:11:03;6.40;66.60
12870;DHT22;6503;48.572;13.460;2023-02-28T12:13:48;6.40;64.90
12870;DHT22;6503;48.572;13.460;2023-02-28T12:16:39;6.50;65.50
12870;DHT22;6503;48.572;13.460;2023-02-28T12:19:21;6.50;68.80
12870;DHT22;6503;48.572;13.460;2023-02-28T12:22:09;6.60;63.40
12870;DHT22;6503;48.572;13.460;2023-02-28T12:24:57;6.70;62.10
12870;DHT22;6503;48.572;13.460;2023-02-28T12:27:31;6.50;63.90
12870;DHT22;6503;48.572;13.460;2023-02-28T12:30:14;6.70;64.80
12870;DHT22;6503;48.572;13.460;2023-02-28T12:32:45;7.00;61.70
12870;DHT22;6503;48.572;13.460;2023-02-28T12:35:19;7.10;56.10
12870;DHT22;6503;48.572;13.460;2023-02-28T12:37:54;7.20;58.30
12870;DHT22;6503;48.572;13.460;2023-02-28T12:40:26;7.00;55.60
12870;DHT22;6503;48.572;13.460;2023-02-28T12:43:20;7.10;57.00
12870;DHT22;6503;48.572;13.460;2023-02-28T12:46:35;7.20;58.00
12870;DHT22;6503;48.572;13.460;2023-02-28T12:49:43;7.50;54.10
12870;DHT22;6503;48.572;13.460;2023-02-28T13:06:32;7.50;52.90
12870;DHT22;6503;48.572;13.460;2023-02-28T13:09:08;7.60;52.70
12870;DHT22;6503;48.572;13.460;2023-02-28T13:11:41;7.70;53.30
12870;DHT22;6503;48.572;13.460;2023-02-28T13:14:24;7.70;52.80
12870;DHT22;6503;48.572;13.460;2023-02-28T13:17:00;7.80;52.70
12870;DHT22;6503;48.572;13.460;2023-02-28T13:19:29;8.00;50.40
12870;DHT22;6503;48.572;13.460;2023-02-28T13:21:59;8.00;49.50
12870;DHT22;6503;48.572;13.460;2023-02-28T13:24:42;7.80;51.10
12870;DHT22;6503;48.572;13.460;2023-02-28T13:27:37;7.90;49.40
12870;DHT22;6503;48.572;13.460;2023-02-28T13:36:30;7.80;50.70
12870;DHT22;6503;48.572;13.460;2023-02-28T13:39:00;7.50;55.00
12870;DHT22;6503;48.572;13.460;2023-02-28T13:41:47;7.40;55.10
12870;DHT22;6503;48.572;13.460;2023-02-28T13:44:18;7.30;56.10
12870;DHT22;6503;48.572;13.460;2023-02-28T13:50:19;6.80;60.60
12870;DHT22;6503;48.572;13.460;2023-02-28T13:52:56;6.60;62.50
12870;DHT22;6503;48.572;13.460;2023-02-28T13:55:35;6.70;67.40
12870;DHT22;6503;48.572;13.460;2023-02-28T13:58:44;6.40;63.10
12870;DHT22;6503;48.572;13.460;2023-02-28T14:02:09;6.30;71.70
12870;DHT22;6503;48.572;13.460;2023-02-28T14:08:28;6.10;79.10
12870;DHT22;6503;48.572;13.460;2023-02-28T14:11:26;6.20;77.70
12870;DHT22;6503;48.572;13.460;2023-02-28T14:20:55;6.30;78.00
12870;DHT22;6503;48.572;13.460;2023-02-28T14:23:36;6.40;81.40
12870;DHT22;6503;48.572;13.460;2023-02-28T14:26:16;6.40;80.30
12870;DHT22;6503;48.572;13.460;2023-02-28T14:29:08;6.40;81.50
12870;DHT22;6503;48.572;13.460;2023-02-28T14:31:46;6.30;81.10
12870;DHT22;6503;48.572;13.460;2023-02-28T14:34:34;6.30;83.40
12870;DHT22;6503;48.572;13.460;2023-02-28T14:37:05;6.20;87.50
12870;DHT22;6503;48.572;13.460;2023-02-28T14:39:34;6.20;82.40
12870;DHT22;6503;48.572;13.460;2023-02-28T14:42:02;6.10;83.70
12870;DHT22;6503;48.572;13.460;2023-02-28T14:44:32;6.10;87.10
12870;DHT22;6503;48.572;13.460;2023-02-28T14:47:03;6.00;92.00
12870;DHT22;6503;48.572;13.460;2023-02-28T14:49:32;6.10;86.60
12870;DHT22;6503;48.572;13.460;2023-02-28T14:52:05;6.10;90.00
12870;DHT22;6503;48.572;13.460;2023-02-28T14:54:37;5.80;91.20
12870;DHT22;6503;48.572;13.460;2023-02-28T14:57:06;5.80;91.80
12870;DHT22;6503;48.572;13.460;2023-02-28T14:59:35;5.60;89.20
12870;DHT22;6503;48.572;13.460;2023-02-28T15:02:17;5.20;93.30
12870;DHT22;6503;48.572;13.460;2023-02-28T15:04:53;5.20;96.10
12870;DHT22;6503;48.572;13.460;2023-02-28T15:07:21;5.30;98.50
12870;DHT22;6503;48.572;13.460;2023-02-28T15:10:08;5.20;96.80
12870;DHT22;6503;48.572;13.460;2023-02-28T15:12:37;5.10;99.90
12870;DHT22;6503;48.572;13.460;2023-02-28T15:15:17;5.20;99.90
12870;DHT22;6503;48.572;13.460;2023-02-28T15:17:56;5.20;99.30
12870;DHT22;6503;48.572;13.460;2023-02-28T15:20:26;5.20;99.40
12870;DHT22;6503;48.572;13.460;2023-02-28T15:22:55;5.20;99.90
12870;DHT22;6503;48.572;13.460;2023-02-28T15:25:24;5.20;99.80
12870;DHT22;6503;48.572;13.460;2023-02-28T15:27:53;5.10;99.90
12870;DHT22;6503;48.572;13.460;2023-02-28T15:30:26;5.20;99.90
12870;DHT22;6503;48.572;13.460;2023-02-28T15:33:06;5.20;99.90
12870;DHT22;6503;48.572;13.460;2023-02-28T15:35:37;5.10;99.40
12870;DHT22;6503;48.572;13.460;2023-02-28T15:38:17;5.10;99.90
12870;DHT22;6503;48.572;13.460;2023-02-28T15:40:51;5.10;99.80
12870;DHT22;6503;48.572;13.460;2023-02-28T15:43:25;5.10;99.90
12870;DHT22;6503;48.572;13.460;2023-02-28T15:45:57;5.00;99.90
12870;DHT22;6503;48.572;13.460;2023-02-28T15:48:27;4.90;99.90
12870;DHT22;6503;48.572;13.460;2023-02-28T15:50:55;4.90;99.90
12870;DHT22;6503;48.572;13.460;2023-02-28T15:53:28;4.90;99.90
12870;DHT22;6503;48.572;13.460;2023-02-28T15:56:00;4.90;99.90
12870;DHT22;6503;48.572;13.460;2023-02-28T15:58:30;4.70;99.90
12870;DHT22;6503;48.572;13.460;2023-02-28T16:01:23;4.70;99.90
12870;DHT22;6503;48.572;13.460;2023-02-28T16:03:53;4.70;99.90
12870;DHT22;6503;48.572;13.460;2023-02-28T16:06:34;4.60;99.90
12870;DHT22;6503;48.572;13.460;2023-02-28T16:09:03;4.60;99.90
12870;DHT22;6503;48.572;13.460;2023-02-28T16:11:33;4.50;99.90
12870;DHT22;6503;48.572;13.460;2023-02-28T16:14:00;4.40;99.90
12870;DHT22;6503;48.572;13.460;2023-02-28T16:16:32;4.20;99.90
12870;DHT22;6503;48.572;13.460;2023-02-28T16:19:01;4.20;99.90
12870;DHT22;6503;48.572;13.460;2023-02-28T16:21:29;4.00;99.90
12870;DHT22;6503;48.572;13.460;2023-02-28T16:24:02;4.00;99.90
12870;DHT22;6503;48.572;13.460;2023-02-28T16:26:38;4.10;99.90
12870;DHT22;6503;48.572;13.460;2023-02-28T16:29:06;4.00;99.90
12870;DHT22;6503;48.572;13.460;2023-02-28T16:31:39;3.80;99.90
12870;DHT22;6503;48.572;13.460;2023-02-28T16:34:06;3.90;99.90
12870;DHT22;6503;48.572;13.460;2023-02-28T16:36:34;3.90;99.90
12870;DHT22;6503;48.572;13.460;2023-02-28T16:39:04;3.90;99.90
12870;DHT22;6503;48.572;13.460;2023-02-28T16:41:34;3.90;99.90
12870;DHT22;6503;48.572;13.460;2023-02-28T16:44:09;3.90;99.90
12870;DHT22;6503;48.572;13.460;2023-02-28T16:46:48;3.90;99.90
12870;DHT22;6503;48.572;13.460;2023-02-28T16:49:23;3.90;99.90
12870;DHT22;6503;48.572;13.460;2023-02-28T16:51:52;4.00;99.90
12870;DHT22;6503;48.572;13.460;2023-02-28T16:54:25;3.90;99.90
12870;DHT22;6503;48.572;13.460;2023-02-28T16:56:55;4.00;99.90
12870;DHT22;6503;48.572;13.460;2023-02-28T16:59:24;4.00;99.90
12870;DHT22;6503;48.572;13.460;2023-02-28T17:01:56;4.10;99.90
12870;DHT22;6503;48.572;13.460;2023-02-28T17:04:25;4.20;99.90
12870;DHT22;6503;48.572;13.460;2023-02-28T17:06:54;4.10;99.90
12870;DHT22;6503;48.572;13.460;2023-02-28T17:09:23;3.90;99.90
12870;DHT22;6503;48.572;13.460;2023-02-28T17:11:53;3.80;99.90
12870;DHT22;6503;48.572;13.460;2023-02-28T17:14:24;3.70;99.90